createdAt,value
2024-04-09T00:00:36.422Z,94569.00
2024-04-09T00:01:36.404Z,94596.00
2024-04-09T00:02:36.544Z,94585.00
2024-04-09T00:03:36.721Z,94571.00
2024-04-09T00:04:36.932Z,94561.00
2024-04-09T00:05:36.795Z,94564.00
2024-04-09T00:06:37.006Z,94566.00
2024-04-09T00:07:36.992Z,94585.00
2024-04-09T00:08:37.086Z,94579.00
2024-04-09T00:09:37.254Z,94588.00
2024-04-09T00:10:37.362Z,94565.00
2024-04-09T00:11:37.532Z,94591.00
2024-04-09T00:12:37.599Z,94590.00
2024-04-09T00:13:37.576Z,94580.00
2024-04-09T00:14:37.679Z,94569.00
2024-04-09T00:15:38.045Z,94579.00
2024-04-09T00:16:37.891Z,94570.00
2024-04-09T00:17:38.131Z,94579.00
2024-04-09T00:18:38.195Z,94592.00
2024-04-09T00:19:38.216Z,94571.00
2024-04-09T00:20:38.273Z,94569.00
2024-04-09T00:21:38.579Z,94592.00
2024-04-09T00:22:38.549Z,94563.00
2024-04-09T00:23:38.628Z,94545.00
2024-04-09T00:24:38.824Z,94573.00
2024-04-09T00:25:38.856Z,94583.00
2024-04-09T00:26:38.939Z,94579.00
2024-04-09T00:27:40.829Z,94564.00
2024-04-09T00:28:39.046Z,94567.00
2024-04-09T00:29:39.060Z,94568.00
2024-04-09T00:30:39.106Z,94581.00
2024-04-09T00:31:39.048Z,94584.00
2024-04-09T00:32:39.181Z,94568.00
2024-04-09T00:33:39.197Z,94560.00
2024-04-09T00:34:39.177Z,94575.00
2024-04-09T00:35:39.057Z,94565.00
2024-04-09T00:36:39.099Z,94582.00
2024-04-09T00:37:39.091Z,94584.00
2024-04-09T00:38:39.060Z,94570.00
2024-04-09T00:39:39.187Z,94564.00
2024-04-09T00:40:39.083Z,94564.00
2024-04-09T00:41:39.084Z,94576.00
2024-04-09T00:42:39.107Z,94585.00
2024-04-09T00:43:39.072Z,94556.00
2024-04-09T00:44:39.081Z,94584.00
2024-04-09T00:45:39.312Z,94597.00
2024-04-09T00:46:39.094Z,94563.00
2024-04-09T00:47:39.218Z,94556.00
2024-04-09T00:48:39.526Z,94558.00
2024-04-09T00:49:39.087Z,94567.00
2024-04-09T00:50:39.091Z,94543.00
2024-04-09T00:51:39.128Z,94558.00
2024-04-09T00:52:39.114Z,94556.00
2024-04-09T00:53:39.115Z,94552.00
2024-04-09T00:54:39.143Z,94543.00
2024-04-09T00:55:39.081Z,94566.00
2024-04-09T00:56:39.156Z,94555.00
2024-04-09T00:57:39.246Z,94531.00
2024-04-09T00:58:39.346Z,94542.00
2024-04-09T00:59:39.468Z,94546.00
2024-04-09T01:00:39.678Z,94532.00
2024-04-09T01:01:39.684Z,94529.00
2024-04-09T01:02:39.797Z,94540.00
2024-04-09T01:03:40.102Z,94540.00
2024-04-09T01:04:40.160Z,94531.00
2024-04-09T01:05:40.062Z,94535.00
2024-04-09T01:06:40.209Z,94545.00
2024-04-09T01:07:41.045Z,94536.00
2024-04-09T01:08:40.382Z,94547.00
2024-04-09T01:09:40.573Z,94542.00
2024-04-09T01:10:40.569Z,94526.00
2024-04-09T01:11:40.677Z,94552.00
2024-04-09T01:12:40.774Z,94527.00
2024-04-09T01:13:40.892Z,94529.00
2024-04-09T01:14:41.003Z,94531.00
2024-04-09T01:15:41.190Z,94529.00
2024-04-09T01:16:41.200Z,94531.00
2024-04-09T01:17:41.373Z,94520.00
2024-04-09T01:18:41.578Z,94505.00
2024-04-09T01:19:41.540Z,94522.00
2024-04-09T01:20:41.616Z,94525.00
2024-04-09T01:21:41.732Z,94526.00
2024-04-09T01:22:41.799Z,94516.00
2024-04-09T01:23:41.903Z,94526.00
2024-04-09T01:24:42.036Z,94548.00
2024-04-09T01:25:42.125Z,94491.00
2024-04-09T01:26:42.211Z,94516.00
2024-04-09T01:27:42.284Z,94497.00
2024-04-09T01:28:42.400Z,94512.00
2024-04-09T01:29:42.488Z,94519.00
2024-04-09T01:30:42.665Z,94517.00
2024-04-09T01:31:42.699Z,94545.00
2024-04-09T01:32:42.944Z,94520.00
2024-04-09T01:33:42.958Z,94511.00
2024-04-09T01:34:43.037Z,94512.00
2024-04-09T01:35:43.087Z,94513.00
2024-04-09T01:36:43.175Z,94506.00
2024-04-09T01:37:43.285Z,94506.00
2024-04-09T01:38:43.383Z,94501.00
2024-04-09T01:39:43.481Z,94518.00
2024-04-09T01:40:43.592Z,94508.00
2024-04-09T01:41:43.688Z,94500.00
2024-04-09T01:42:43.827Z,94503.00
2024-04-09T01:43:43.892Z,94495.00
2024-04-09T01:44:43.965Z,94511.00
2024-04-09T01:45:44.602Z,94503.00
2024-04-09T01:46:44.204Z,94494.00
2024-04-09T01:47:44.333Z,94512.00
2024-04-09T01:48:44.446Z,94516.00
2024-04-09T01:49:44.467Z,94506.00
2024-04-09T01:50:44.587Z,94524.00
2024-04-09T01:51:44.713Z,94509.00
2024-04-09T01:52:44.825Z,94502.00
2024-04-09T01:54:01.554Z,94499.00
2024-04-09T01:55:01.519Z,94500.00
2024-04-09T01:56:01.542Z,94509.00
2024-04-09T01:57:01.596Z,94503.00
2024-04-09T01:58:01.599Z,94492.00
2024-04-09T01:59:01.501Z,94512.00
2024-04-09T02:00:01.675Z,94502.00
2024-04-09T02:01:01.582Z,94507.00
2024-04-09T02:02:01.689Z,94520.00
2024-04-09T02:03:01.665Z,94507.00
2024-04-09T02:04:01.565Z,94509.00
2024-04-09T02:05:01.535Z,94522.00
2024-04-09T02:06:01.687Z,94511.00
2024-04-09T02:07:01.510Z,94499.00
2024-04-09T02:08:01.600Z,94509.00
2024-04-09T02:09:01.681Z,94534.00
2024-04-09T02:10:01.541Z,94533.00
2024-04-09T02:11:01.529Z,94507.00
2024-04-09T02:12:01.809Z,94520.00
2024-04-09T02:13:01.714Z,94517.00
2024-04-09T02:14:01.643Z,94507.00
2024-04-09T02:15:01.602Z,94528.00
2024-04-09T02:16:01.665Z,94533.00
2024-04-09T02:17:01.736Z,94515.00
2024-04-09T02:18:01.779Z,94511.00
2024-04-09T02:19:01.574Z,94514.00
2024-04-09T02:20:01.556Z,94543.00
2024-04-09T02:21:01.640Z,94511.00
2024-04-09T02:22:01.575Z,94523.00
2024-04-09T02:23:01.608Z,94525.00
2024-04-09T02:24:01.691Z,94521.00
2024-04-09T02:25:01.750Z,94527.00
2024-04-09T02:26:01.625Z,94513.00
2024-04-09T02:27:01.623Z,94507.00
2024-04-09T02:28:01.584Z,94521.00
2024-04-09T02:29:01.690Z,94527.00
2024-04-09T02:30:01.667Z,94518.00
2024-04-09T02:31:01.606Z,94511.00
2024-04-09T02:32:01.771Z,94523.00
2024-04-09T02:33:01.744Z,94523.00
2024-04-09T02:34:01.772Z,94547.00
2024-04-09T02:35:01.605Z,94498.00
2024-04-09T02:36:01.597Z,94519.00
2024-04-09T02:37:01.639Z,94546.00
2024-04-09T02:38:01.615Z,94530.00
2024-04-09T02:39:01.625Z,94521.00
2024-04-09T02:40:01.800Z,94514.00
2024-04-09T02:41:01.790Z,94509.00
2024-04-09T02:42:01.907Z,94520.00
2024-04-09T02:43:01.937Z,94508.00
2024-04-09T02:44:02.008Z,94512.00
2024-04-09T02:45:02.179Z,94512.00
2024-04-09T02:46:02.228Z,94498.00
2024-04-09T02:47:02.391Z,94519.00
2024-04-09T02:48:02.540Z,94506.00
2024-04-09T02:49:02.663Z,94517.00
2024-04-09T02:50:02.607Z,94497.00
2024-04-09T02:51:02.723Z,94535.00
2024-04-09T02:52:02.808Z,94520.00
2024-04-09T02:53:02.931Z,94530.00
2024-04-09T02:54:03.037Z,94516.00
2024-04-09T02:55:03.129Z,94526.00
2024-04-09T02:56:03.182Z,94542.00
2024-04-09T02:57:03.275Z,94506.00
2024-04-09T02:58:03.376Z,94511.00
2024-04-09T02:59:03.493Z,94506.00
2024-04-09T03:00:03.612Z,94538.00
2024-04-09T03:01:03.723Z,94531.00
2024-04-09T03:02:03.808Z,94501.00
2024-04-09T03:03:03.893Z,94536.00
2024-04-09T03:04:04.115Z,94539.00
2024-04-09T03:05:04.091Z,94506.00
2024-04-09T03:06:04.260Z,94513.00
2024-04-09T03:07:04.319Z,94513.00
2024-04-09T03:08:04.470Z,94517.00
2024-04-09T03:09:04.580Z,94517.00
2024-04-09T03:10:04.664Z,94511.00
2024-04-09T03:11:04.809Z,94504.00
2024-04-09T03:12:04.857Z,94517.00
2024-04-09T03:13:05.006Z,94503.00
2024-04-09T03:14:05.085Z,94512.00
2024-04-09T03:15:05.268Z,94508.00
2024-04-09T03:16:05.301Z,94504.00
2024-04-09T03:17:05.370Z,94506.00
2024-04-09T03:18:05.568Z,94512.00
2024-04-09T03:19:05.562Z,94507.00
2024-04-09T03:20:05.669Z,94502.00
2024-04-09T03:21:05.726Z,94494.00
2024-04-09T03:22:05.852Z,94501.00
2024-04-09T03:23:05.913Z,94494.00
2024-04-09T03:24:06.071Z,94513.00
2024-04-09T03:25:06.069Z,94504.00
2024-04-09T03:26:06.193Z,94500.00
2024-04-09T03:27:06.330Z,94504.00
2024-04-09T03:28:06.397Z,94508.00
2024-04-09T03:29:06.462Z,94505.00
2024-04-09T03:30:06.682Z,94513.00
2024-04-09T03:31:06.629Z,94495.00
2024-04-09T03:32:06.758Z,94528.00
2024-04-09T03:33:23.628Z,94518.00
2024-04-09T03:34:23.656Z,94485.00
2024-04-09T03:35:23.412Z,94497.00
2024-04-09T03:36:23.442Z,94506.00
2024-04-09T03:37:23.426Z,94492.00
2024-04-09T03:38:23.428Z,94497.00
2024-04-09T03:39:23.469Z,94486.00
2024-04-09T03:40:23.420Z,94485.00
2024-04-09T03:41:23.439Z,94500.00
2024-04-09T03:42:23.437Z,94507.00
2024-04-09T03:43:23.432Z,94495.00
2024-04-09T03:44:23.421Z,94497.00
2024-04-09T03:45:23.450Z,94493.00
2024-04-09T03:46:23.453Z,94510.00
2024-04-09T03:47:23.495Z,94509.00
2024-04-09T03:48:23.618Z,94519.00
2024-04-09T03:49:23.620Z,94486.00
2024-04-09T03:50:23.483Z,94494.00
2024-04-09T03:51:23.594Z,94489.00
2024-04-09T03:52:23.512Z,94500.00
2024-04-09T03:53:23.500Z,94516.00
2024-04-09T03:54:23.551Z,94506.00
2024-04-09T03:55:24.065Z,94491.00
2024-04-09T03:56:23.498Z,94507.00
2024-04-09T03:57:23.503Z,94497.00
2024-04-09T03:58:23.471Z,94510.00
2024-04-09T03:59:23.476Z,94527.00
2024-04-09T04:00:23.594Z,94512.00
2024-04-09T04:01:23.541Z,94524.00
2024-04-09T04:02:23.519Z,94506.00
2024-04-09T04:03:23.638Z,94508.00
2024-04-09T04:04:23.662Z,94518.00
2024-04-09T04:05:23.532Z,94517.00
2024-04-09T04:06:23.553Z,94502.00
2024-04-09T04:07:23.524Z,94491.00
2024-04-09T04:08:23.579Z,94515.00
2024-04-09T04:09:23.563Z,94514.00
2024-04-09T04:10:23.549Z,94498.00
2024-04-09T04:11:23.627Z,94492.00
2024-04-09T04:12:23.645Z,94504.00
2024-04-09T04:13:23.527Z,94499.00
2024-04-09T04:14:23.536Z,94499.00
2024-04-09T04:15:23.589Z,94494.00
2024-04-09T04:16:23.556Z,94507.00
2024-04-09T04:17:23.620Z,94498.00
2024-04-09T04:18:23.617Z,94464.00
2024-04-09T04:19:23.551Z,94495.00
2024-04-09T04:20:23.595Z,94483.00
2024-04-09T04:21:23.721Z,94480.00
2024-04-09T04:22:23.800Z,94510.00
2024-04-09T04:23:23.903Z,94495.00
2024-04-09T04:24:24.054Z,94492.00
2024-04-09T04:25:24.104Z,94480.00
2024-04-09T04:26:24.196Z,94479.00
2024-04-09T04:27:24.305Z,94512.00
2024-04-09T04:28:24.372Z,94480.00
2024-04-09T04:29:24.437Z,94466.00
2024-04-09T04:30:24.599Z,94457.00
2024-04-09T04:31:24.653Z,94461.00
2024-04-09T04:32:32.247Z,94461.00
2024-04-09T04:33:32.386Z,94468.00
2024-04-09T04:34:32.290Z,94473.00
2024-04-09T04:35:32.315Z,94447.00
2024-04-09T04:36:32.488Z,94456.00
2024-04-09T04:37:32.507Z,94468.00
2024-04-09T04:38:32.583Z,94459.00
2024-04-09T04:39:32.692Z,94462.00
2024-04-09T04:40:32.801Z,94464.00
2024-04-09T04:41:32.890Z,94488.00
2024-04-09T04:42:33.066Z,94467.00
2024-04-09T04:43:33.096Z,94472.00
2024-04-09T04:44:33.181Z,94453.00
2024-04-09T04:45:33.316Z,94473.00
2024-04-09T04:46:33.379Z,94450.00
2024-04-09T04:47:33.598Z,94457.00
2024-04-09T04:48:33.650Z,94474.00
2024-04-09T04:49:33.822Z,94465.00
2024-04-09T04:50:33.745Z,94489.00
2024-04-09T04:51:33.850Z,94448.00
2024-04-09T04:52:33.873Z,94453.00
2024-04-09T04:53:34.017Z,94450.00
2024-04-09T04:54:34.163Z,94467.00
2024-04-09T04:55:34.160Z,94475.00
2024-04-09T04:56:34.255Z,94434.00
2024-04-09T04:57:34.375Z,94460.00
2024-04-09T04:58:34.457Z,94439.00
2024-04-09T04:59:34.527Z,94441.00
2024-04-09T05:00:34.633Z,94455.00
2024-04-09T05:01:34.738Z,94451.00
2024-04-09T05:02:34.852Z,94443.00
2024-04-09T05:03:35.026Z,94459.00
2024-04-09T05:04:35.186Z,94444.00
2024-04-09T05:05:35.121Z,94439.00
2024-04-09T05:06:35.334Z,94456.00
2024-04-09T05:07:35.374Z,94453.00
2024-04-09T05:08:35.465Z,94450.00
2024-04-09T05:09:35.680Z,94438.00
2024-04-09T05:10:35.686Z,94436.00
2024-04-09T05:11:35.802Z,94448.00
2024-04-09T05:12:35.929Z,94448.00
2024-04-09T05:13:35.997Z,94457.00
2024-04-09T05:14:36.046Z,94444.00
2024-04-09T05:15:36.221Z,94451.00
2024-04-09T05:16:36.265Z,94442.00
2024-04-09T05:17:36.412Z,94436.00
2024-04-09T05:18:36.702Z,94452.00
2024-04-09T05:19:36.668Z,94435.00
2024-04-09T05:20:36.691Z,94448.00
2024-04-09T05:21:36.850Z,94443.00
2024-04-09T05:22:36.957Z,94447.00
2024-04-09T05:23:37.011Z,94453.00
2024-04-09T05:24:37.205Z,94458.00
2024-04-09T05:25:37.231Z,94449.00
2024-04-09T05:26:37.348Z,94465.00
2024-04-09T05:27:37.479Z,94440.00
2024-04-09T05:28:37.607Z,94437.00
2024-04-09T05:29:37.690Z,94445.00
2024-04-09T05:30:37.782Z,94439.00
2024-04-09T05:31:37.871Z,94427.00
2024-04-09T05:32:38.167Z,94431.00
2024-04-09T05:33:38.167Z,94456.00
2024-04-09T05:34:38.188Z,94464.00
2024-04-09T05:35:38.288Z,94452.00
2024-04-09T05:36:38.440Z,94455.00
2024-04-09T05:37:38.519Z,94451.00
2024-04-09T05:38:38.776Z,94443.00
2024-04-09T05:39:38.768Z,94445.00
2024-04-09T05:40:38.767Z,94427.00
2024-04-09T05:41:38.865Z,94447.00
2024-04-09T05:42:39.096Z,94453.00
2024-04-09T05:43:39.095Z,94434.00
2024-04-09T05:44:39.144Z,94450.00
2024-04-09T05:45:39.270Z,94462.00
2024-04-09T05:46:39.335Z,94464.00
2024-04-09T05:47:39.485Z,94451.00
2024-04-09T05:48:39.727Z,94454.00
2024-04-09T05:49:39.641Z,94444.00
2024-04-09T05:50:39.688Z,94449.00
2024-04-09T05:51:39.897Z,94450.00
2024-04-09T05:52:39.896Z,94452.00
2024-04-09T05:53:39.992Z,94455.00
2024-04-09T05:54:40.179Z,94453.00
2024-04-09T05:55:40.164Z,94459.00
2024-04-09T05:56:40.206Z,94447.00
2024-04-09T05:57:40.454Z,94447.00
2024-04-09T05:58:40.376Z,94480.00
2024-04-09T05:59:40.467Z,94447.00
2024-04-09T06:00:40.652Z,94458.00
2024-04-09T06:01:40.773Z,94470.00
2024-04-09T06:02:40.754Z,94454.00
2024-04-09T06:03:40.918Z,94478.00
2024-04-09T06:04:40.976Z,94465.00
2024-04-09T06:05:41.077Z,94466.00
2024-04-09T06:06:41.200Z,94465.00
2024-04-09T06:07:41.274Z,94465.00
2024-04-09T06:08:41.388Z,94474.00
2024-04-09T06:09:41.685Z,94458.00
2024-04-09T06:10:42.127Z,94449.00
2024-04-09T06:11:41.622Z,94478.00
2024-04-09T06:12:41.776Z,94483.00
2024-04-09T06:13:41.674Z,94487.00
2024-04-09T06:14:41.706Z,94485.00
2024-04-09T06:15:41.824Z,94467.00
2024-04-09T06:16:41.772Z,94485.00
2024-04-09T06:17:41.967Z,94478.00
2024-04-09T06:18:42.028Z,94481.00
2024-04-09T06:19:42.036Z,94482.00
2024-04-09T06:20:41.946Z,94477.00
2024-04-09T06:21:41.987Z,94489.00
2024-04-09T06:22:42.062Z,94500.00
2024-04-09T06:23:42.197Z,94517.00
2024-04-09T06:24:42.452Z,94495.00
2024-04-09T06:25:42.347Z,94505.00
2024-04-09T06:26:42.463Z,94499.00
2024-04-09T06:27:42.594Z,94478.00
2024-04-09T06:28:42.685Z,94475.00
2024-04-09T06:29:42.731Z,94531.00
2024-04-09T06:30:42.911Z,94497.00
2024-04-09T06:31:42.966Z,94496.00
2024-04-09T06:32:43.226Z,94472.00
2024-04-09T06:33:43.261Z,94477.00
2024-04-09T06:34:43.262Z,94479.00
2024-04-09T06:35:43.379Z,94489.00
2024-04-09T06:36:43.531Z,94510.00
2024-04-09T06:37:43.619Z,94496.00
2024-04-09T06:38:43.692Z,94474.00
2024-04-09T06:39:43.950Z,94512.00
2024-04-09T06:40:43.913Z,94484.00
2024-04-09T06:41:44.024Z,94499.00
2024-04-09T06:42:44.268Z,94504.00
2024-04-09T06:43:44.216Z,94476.00
2024-04-09T06:44:44.338Z,94482.00
2024-04-09T06:45:44.489Z,94471.00
2024-04-09T06:46:44.586Z,94500.00
2024-04-09T06:47:44.766Z,94479.00
2024-04-09T06:48:44.893Z,94474.00
2024-04-09T06:49:45.131Z,94500.00
2024-04-09T06:50:44.959Z,94490.00
2024-04-09T06:51:45.105Z,94489.00
2024-04-09T06:52:45.243Z,94496.00
2024-04-09T06:53:45.336Z,94488.00
2024-04-09T06:54:45.547Z,94542.00
2024-04-09T06:55:45.528Z,94517.00
2024-04-09T06:56:45.623Z,94497.00
2024-04-09T06:57:45.823Z,94475.00
2024-04-09T06:58:45.871Z,94483.00
2024-04-09T06:59:45.935Z,94491.00
2024-04-09T07:00:46.196Z,94510.00
2024-04-09T07:01:46.372Z,94495.00
2024-04-09T07:02:46.324Z,94482.00
2024-04-09T07:03:46.491Z,94495.00
2024-04-09T07:04:46.483Z,94495.00
2024-04-09T07:05:46.595Z,94505.00
2024-04-09T07:06:46.747Z,94521.00
2024-04-09T07:07:46.788Z,94503.00
2024-04-09T07:08:46.887Z,94517.00
2024-04-09T07:09:47.020Z,94521.00
2024-04-09T07:10:47.059Z,94523.00
2024-04-09T07:11:47.283Z,94518.00
2024-04-09T07:12:47.304Z,94527.00
2024-04-09T07:13:47.424Z,94517.00
2024-04-09T07:14:47.427Z,94515.00
2024-04-09T07:15:47.612Z,94518.00
2024-04-09T07:16:47.866Z,94524.00
2024-04-09T07:17:47.817Z,94508.00
2024-04-09T07:18:47.923Z,94508.00
2024-04-09T07:19:47.942Z,94510.00
2024-04-09T07:20:48.003Z,94523.00
2024-04-09T07:21:48.165Z,94518.00
2024-04-09T07:22:48.223Z,94511.00
2024-04-09T07:23:48.338Z,94515.00
2024-04-09T07:24:48.462Z,94509.00
2024-04-09T07:25:48.493Z,94512.00
2024-04-09T07:26:48.611Z,94518.00
2024-04-09T07:27:48.673Z,94516.00
2024-04-09T07:28:48.814Z,94515.00
2024-04-09T07:29:48.886Z,94517.00
2024-04-09T07:30:49.055Z,94524.00
2024-04-09T07:31:49.091Z,94526.00
2024-04-09T07:32:49.242Z,94520.00
2024-04-09T07:33:49.271Z,94520.00
2024-04-09T07:34:49.357Z,94520.00
2024-04-09T07:35:49.469Z,94496.00
2024-04-09T07:36:49.647Z,94516.00
2024-04-09T07:37:49.642Z,94530.00
2024-04-09T07:38:49.770Z,94529.00
2024-04-09T07:39:49.896Z,94518.00
2024-04-09T07:40:49.946Z,94516.00
2024-04-09T07:41:50.087Z,94517.00
2024-04-09T07:42:50.249Z,94520.00
2024-04-09T07:43:50.280Z,94528.00
2024-04-09T07:44:50.355Z,94531.00
2024-04-09T07:45:50.488Z,94524.00
2024-04-09T07:46:50.579Z,94521.00
2024-04-09T07:47:50.890Z,94526.00
2024-04-09T07:48:51.117Z,94524.00
2024-04-09T07:49:52.363Z,94518.00
2024-04-09T07:50:50.879Z,94526.00
2024-04-09T07:51:50.961Z,94524.00
2024-04-09T07:52:50.929Z,94528.00
2024-04-09T07:53:50.967Z,94525.00
2024-04-09T07:54:51.053Z,94527.00
2024-04-09T07:55:51.018Z,94534.00
2024-04-09T07:56:51.056Z,94524.00
2024-04-09T07:57:51.093Z,94528.00
2024-04-09T07:58:51.232Z,94528.00
2024-04-09T07:59:51.339Z,94526.00
2024-04-09T08:00:51.501Z,94523.00
2024-04-09T08:01:51.519Z,94528.00
2024-04-09T08:02:51.625Z,94532.00
2024-04-09T08:03:51.886Z,94525.00
2024-04-09T08:04:52.211Z,94516.00
2024-04-09T08:05:51.819Z,94526.00
2024-04-09T08:06:51.973Z,94534.00
2024-04-09T08:07:51.982Z,94525.00
2024-04-09T08:08:52.096Z,94515.00
2024-04-09T08:09:52.020Z,94523.00
2024-04-09T08:10:52.120Z,94533.00
2024-04-09T08:11:51.997Z,94532.00
2024-04-09T08:12:52.054Z,94525.00
2024-04-09T08:13:52.024Z,94542.00
2024-04-09T08:14:52.043Z,94550.00
2024-04-09T08:15:52.120Z,94540.00
2024-04-09T08:16:52.131Z,94534.00
2024-04-09T08:17:52.329Z,94534.00
2024-04-09T08:18:52.610Z,94546.00
2024-04-09T08:19:52.499Z,94548.00
2024-04-09T08:20:52.510Z,94539.00
2024-04-09T08:21:52.661Z,94543.00
2024-04-09T08:22:52.696Z,94543.00
2024-04-09T08:23:52.796Z,94545.00
2024-04-09T08:24:52.910Z,94551.00
2024-04-09T08:25:53.044Z,94557.00
2024-04-09T08:26:53.039Z,94549.00
2024-04-09T08:27:53.226Z,94535.00
2024-04-09T08:28:53.254Z,94542.00
2024-04-09T08:29:53.318Z,94548.00
2024-04-09T08:30:53.482Z,94549.00
2024-04-09T08:31:53.525Z,94537.00
2024-04-09T08:32:53.791Z,94532.00
2024-04-09T08:33:53.788Z,94540.00
2024-04-09T08:34:53.874Z,94542.00
2024-04-09T08:35:53.871Z,94539.00
2024-04-09T08:36:54.161Z,94540.00
2024-04-09T08:37:54.184Z,94540.00
2024-04-09T08:38:54.207Z,94539.00
2024-04-09T08:39:54.387Z,94537.00
2024-04-09T08:40:54.424Z,94539.00
2024-04-09T08:41:54.505Z,94538.00
2024-04-09T08:42:57.845Z,94541.00
2024-04-09T08:43:54.589Z,94543.00
2024-04-09T08:44:54.586Z,94515.00
2024-04-09T08:45:54.654Z,94527.00
2024-04-09T08:46:54.624Z,94533.00
2024-04-09T08:47:54.676Z,94531.00
2024-04-09T08:48:54.783Z,94532.00
2024-04-09T08:49:57.666Z,94535.00
2024-04-09T08:50:54.767Z,94530.00
2024-04-09T08:51:54.816Z,94534.00
2024-04-09T08:52:54.747Z,94533.00
2024-04-09T08:53:54.632Z,94530.00
2024-04-09T08:54:54.697Z,94525.00
2024-04-09T08:55:54.678Z,94519.00
2024-04-09T08:56:54.651Z,94527.00
2024-04-09T08:57:54.647Z,94529.00
2024-04-09T08:58:54.672Z,94522.00
2024-04-09T08:59:54.660Z,94513.00
2024-04-09T09:00:54.923Z,94515.00
2024-04-09T09:01:54.667Z,94525.00
2024-04-09T09:02:54.726Z,94515.00
2024-04-09T09:03:54.755Z,94516.00
2024-04-09T09:04:54.691Z,94512.00
2024-04-09T09:05:54.656Z,94498.00
2024-04-09T09:06:54.660Z,94513.00
2024-04-09T09:07:54.676Z,94520.00
2024-04-09T09:08:54.683Z,94526.00
2024-04-09T09:09:54.750Z,94501.00
2024-04-09T09:10:54.847Z,94515.00
2024-04-09T09:11:54.926Z,94518.00
2024-04-09T09:12:54.992Z,94512.00
2024-04-09T09:13:55.099Z,94508.00
2024-04-09T09:14:55.190Z,94507.00
2024-04-09T09:15:55.306Z,94503.00
2024-04-09T09:16:55.467Z,94507.00
2024-04-09T09:17:55.507Z,94503.00
2024-04-09T09:18:55.617Z,94511.00
2024-04-09T09:19:55.628Z,94494.00
2024-04-09T09:20:55.717Z,94504.00
2024-04-09T09:21:55.773Z,94510.00
2024-04-09T09:22:56.272Z,94510.00
2024-04-09T09:23:55.967Z,94485.00
2024-04-09T09:24:56.048Z,94494.00
2024-04-09T09:25:56.138Z,94485.00
2024-04-09T09:26:56.236Z,94496.00
2024-04-09T09:27:56.308Z,94486.00
2024-04-09T09:28:56.405Z,94500.00
2024-04-09T09:29:56.484Z,94473.00
2024-04-09T09:30:56.582Z,94473.00
2024-04-09T09:31:56.736Z,94484.00
2024-04-09T09:32:56.771Z,94481.00
2024-04-09T09:33:56.871Z,94461.00
2024-04-09T09:34:56.869Z,94475.00
2024-04-09T09:35:56.963Z,94464.00
2024-04-09T09:36:57.062Z,94473.00
2024-04-09T09:37:58.474Z,94459.00
2024-04-09T09:38:57.197Z,94459.00
2024-04-09T09:39:57.311Z,94459.00
2024-04-09T09:40:57.322Z,94458.00
2024-04-09T09:41:57.475Z,94477.00
2024-04-09T09:42:57.515Z,94486.00
2024-04-09T09:43:59.417Z,94464.00
2024-04-09T09:44:57.583Z,94462.00
2024-04-09T09:45:57.650Z,94470.00
2024-04-09T09:46:57.652Z,94459.00
2024-04-09T09:47:57.806Z,94456.00
2024-04-09T09:48:57.703Z,94458.00
2024-04-09T09:50:06.188Z,94454.00
2024-04-09T09:50:58.592Z,94461.00
2024-04-09T09:51:57.604Z,94469.00
2024-04-09T09:52:57.607Z,94450.00
2024-04-09T09:53:57.697Z,94471.00
2024-04-09T09:55:00.691Z,94439.00
2024-04-09T09:55:57.604Z,94456.00
2024-04-09T09:56:57.610Z,94471.00
2024-04-09T09:57:57.618Z,94465.00
2024-04-09T09:58:57.626Z,94448.00
2024-04-09T09:59:57.698Z,94453.00
2024-04-09T10:00:57.744Z,94454.00
2024-04-09T10:01:57.660Z,94489.00
2024-04-09T10:02:57.679Z,94453.00
2024-04-09T10:03:57.804Z,94446.00
2024-04-09T10:04:57.695Z,94470.00
2024-04-09T10:05:57.630Z,94457.00
2024-04-09T10:06:58.242Z,94463.00
2024-04-09T10:07:57.621Z,94456.00
2024-04-09T10:08:57.668Z,94457.00
2024-04-09T10:09:57.612Z,94439.00
2024-04-09T10:10:57.650Z,94451.00
2024-04-09T10:11:57.737Z,94444.00
2024-04-09T10:12:57.707Z,94455.00
2024-04-09T10:13:57.636Z,94446.00
2024-04-09T10:14:57.645Z,94448.00
2024-04-09T10:15:57.759Z,94444.00
2024-04-09T10:16:57.655Z,94441.00
2024-04-09T10:17:57.877Z,94439.00
2024-04-09T10:18:57.752Z,94463.00
2024-04-09T10:19:57.681Z,94450.00
2024-04-09T10:20:57.678Z,94445.00
2024-04-09T10:21:57.726Z,94452.00
2024-04-09T10:22:57.688Z,94446.00
2024-04-09T10:23:57.693Z,94436.00
2024-04-09T10:24:57.654Z,94446.00
2024-04-09T10:25:57.700Z,94435.00
2024-04-09T10:26:57.695Z,94434.00
2024-04-09T10:27:57.837Z,94439.00
2024-04-09T10:28:57.936Z,94441.00
2024-04-09T10:29:58.012Z,94440.00
2024-04-09T10:30:58.126Z,94449.00
2024-04-09T10:31:58.207Z,94434.00
2024-04-09T10:32:58.565Z,94435.00
2024-04-09T10:33:58.765Z,94444.00
2024-04-09T10:34:58.591Z,94430.00
2024-04-09T10:35:58.610Z,94432.00
2024-04-09T10:36:58.756Z,94436.00
2024-04-09T10:37:58.814Z,94431.00
2024-04-09T10:38:58.926Z,94432.00
2024-04-09T10:39:59.046Z,94427.00
2024-04-09T10:40:59.107Z,94445.00
2024-04-09T10:41:59.344Z,94433.00
2024-04-09T10:42:59.296Z,94432.00
2024-04-09T10:43:59.419Z,94418.00
2024-04-09T10:44:59.617Z,94437.00
2024-04-09T10:46:07.720Z,94432.00
2024-04-09T10:47:00.632Z,94416.00
2024-04-09T10:47:59.692Z,94423.00
2024-04-09T10:48:59.712Z,94420.00
2024-04-09T10:49:59.563Z,94421.00
2024-04-09T10:50:59.618Z,94434.00
2024-04-09T10:51:59.610Z,94427.00
2024-04-09T10:52:59.601Z,94418.00
2024-04-09T10:53:59.652Z,94429.00
2024-04-09T10:54:59.636Z,94423.00
2024-04-09T10:55:59.620Z,94421.00
2024-04-09T10:56:59.736Z,94438.00
2024-04-09T10:57:59.652Z,94451.00
2024-04-09T10:58:59.721Z,94424.00
2024-04-09T10:59:59.897Z,94419.00
2024-04-09T11:01:00.121Z,94417.00
2024-04-09T11:02:00.045Z,94413.00
2024-04-09T11:03:00.282Z,94420.00
2024-04-09T11:04:00.340Z,94424.00
2024-04-09T11:05:00.499Z,94414.00
2024-04-09T11:06:00.513Z,94420.00
2024-04-09T11:07:00.464Z,94418.00
2024-04-09T11:08:00.509Z,94416.00
2024-04-09T11:09:00.834Z,94418.00
2024-04-09T11:10:00.711Z,94411.00
2024-04-09T11:11:00.751Z,94407.00
2024-04-09T11:12:01.156Z,94410.00
2024-04-09T11:13:00.796Z,94402.00
2024-04-09T11:14:00.855Z,94405.00
2024-04-09T11:16:05.211Z,94402.00
2024-04-09T11:17:05.266Z,94406.00
2024-04-09T11:18:05.445Z,94406.00
2024-04-09T11:19:05.484Z,94411.00
2024-04-09T11:20:05.370Z,94394.00
2024-04-09T11:21:05.480Z,94401.00
2024-04-09T11:22:05.505Z,94404.00
2024-04-09T11:23:05.574Z,94400.00
2024-04-09T11:24:05.792Z,94414.00
2024-04-09T11:25:05.750Z,94413.00
2024-04-09T11:26:05.848Z,94411.00
2024-04-09T11:27:05.941Z,94411.00
2024-04-09T11:28:05.977Z,94403.00
2024-04-09T11:29:06.044Z,94405.00
2024-04-09T11:30:06.166Z,94400.00
2024-04-09T11:31:06.173Z,94408.00
2024-04-09T11:32:06.264Z,94412.00
2024-04-09T11:33:06.612Z,94416.00
2024-04-09T11:34:06.684Z,94410.00
2024-04-09T11:35:06.664Z,94412.00
2024-04-09T11:36:13.716Z,94407.00
2024-04-09T11:37:07.739Z,94414.00
2024-04-09T11:38:06.672Z,94410.00
2024-04-09T11:39:06.719Z,94414.00
2024-04-09T11:40:06.702Z,94412.00
2024-04-09T11:41:06.696Z,94411.00
2024-04-09T11:42:06.763Z,94409.00
2024-04-09T11:43:06.720Z,94417.00
2024-04-09T11:44:06.729Z,94409.00
2024-04-09T11:45:06.781Z,94412.00
2024-04-09T11:46:06.703Z,94414.00
2024-04-09T11:47:06.737Z,94424.00